createdAt,value
2023-11-27T00:01:42.145Z,9.73
2023-11-27T00:04:08.661Z,9.73
2023-11-27T00:06:35.044Z,9.43
2023-11-27T00:09:01.345Z,9.13
2023-11-27T00:11:27.696Z,9.90
2023-11-27T00:13:54.030Z,8.70
2023-11-27T00:16:20.454Z,8.83
2023-11-27T00:18:48.110Z,9.57
2023-11-27T00:21:14.873Z,8.50
2023-11-27T00:23:41.390Z,8.57
2023-11-27T00:26:08.048Z,8.23
2023-11-27T00:28:34.861Z,8.93
2023-11-27T00:31:01.308Z,8.67
2023-11-27T00:33:27.674Z,8.37
2023-11-27T00:35:54.075Z,7.97
2023-11-27T00:38:20.615Z,9.00
2023-11-27T00:40:47.697Z,8.20
2023-11-27T00:43:14.847Z,8.03
2023-11-27T00:45:41.266Z,7.70
2023-11-27T00:48:07.959Z,6.90
2023-11-27T00:50:34.382Z,6.83
2023-11-27T00:53:00.649Z,7.30
2023-11-27T00:55:27.058Z,6.90
2023-11-27T00:57:53.327Z,7.07
2023-11-27T01:00:19.749Z,6.87
2023-11-27T01:02:46.694Z,6.70
2023-11-27T01:05:15.421Z,6.30
2023-11-27T01:07:42.883Z,6.30
2023-11-27T01:10:09.803Z,6.90
2023-11-27T01:12:39.564Z,5.97
2023-11-27T01:15:07.487Z,6.53
2023-11-27T01:17:33.782Z,6.47
2023-11-27T01:20:00.073Z,6.10
2023-11-27T01:22:26.352Z,7.20
2023-11-27T01:24:52.653Z,6.27
2023-11-27T01:27:19.394Z,6.70
2023-11-27T01:29:45.678Z,6.57
2023-11-27T01:32:11.986Z,6.53
2023-11-27T01:34:39.043Z,6.10
2023-11-27T01:37:05.513Z,6.30
2023-11-27T01:39:31.882Z,6.80
2023-11-27T01:41:58.165Z,6.63
2023-11-27T01:44:24.426Z,6.70
2023-11-27T01:46:50.862Z,6.33
2023-11-27T01:49:19.026Z,6.43
2023-11-27T01:51:46.185Z,6.57
2023-11-27T01:54:13.832Z,6.33
2023-11-27T01:56:42.332Z,6.47
2023-11-27T01:59:08.675Z,6.77
2023-11-27T02:01:35.123Z,6.97
2023-11-27T02:04:01.565Z,7.10
2023-11-27T02:06:27.910Z,6.80
2023-11-27T02:08:57.198Z,6.23
2023-11-27T02:11:23.848Z,6.57
2023-11-27T02:13:50.550Z,5.90
2023-11-27T02:16:17.958Z,6.67
2023-11-27T02:18:44.605Z,6.50
2023-11-27T02:21:11.491Z,6.30
2023-11-27T02:23:38.578Z,7.07
2023-11-27T02:26:05.480Z,6.30
2023-11-27T02:28:31.781Z,6.57
2023-11-27T02:30:58.239Z,6.60
2023-11-27T02:33:26.568Z,6.50
2023-11-27T02:35:53.178Z,6.57
2023-11-27T02:38:20.148Z,6.23
2023-11-27T02:40:46.680Z,6.53
2023-11-27T02:43:13.122Z,6.80
2023-11-27T02:45:39.446Z,6.23
2023-11-27T02:48:06.012Z,6.60
2023-11-27T02:50:32.476Z,6.47
2023-11-27T02:52:58.762Z,6.90
2023-11-27T02:55:25.418Z,6.17
2023-11-27T02:57:51.847Z,6.97
2023-11-27T03:00:19.842Z,6.67
2023-11-27T03:02:46.310Z,7.03
2023-11-27T03:05:12.924Z,7.20
2023-11-27T03:07:39.259Z,6.43
2023-11-27T03:10:06.016Z,7.37
2023-11-27T03:12:32.319Z,7.47
2023-11-27T03:14:59.571Z,7.23
2023-11-27T03:17:25.914Z,7.20
2023-11-27T03:19:54.972Z,6.67
2023-11-27T03:22:21.739Z,6.83
2023-11-27T03:24:48.179Z,7.33
2023-11-27T03:27:14.517Z,6.80
2023-11-27T03:29:40.826Z,6.70
2023-11-27T03:32:07.551Z,6.93
2023-11-27T03:34:33.859Z,7.10
2023-11-27T03:37:00.262Z,6.53
2023-11-27T03:39:27.020Z,7.00
2023-11-27T03:41:53.405Z,6.70
2023-11-27T03:44:19.961Z,7.43
2023-11-27T03:46:46.494Z,6.90
2023-11-27T03:49:13.536Z,7.47
2023-11-27T03:51:39.928Z,7.70
2023-11-27T03:54:06.804Z,7.13
2023-11-27T03:56:33.066Z,7.47
2023-11-27T03:58:59.333Z,7.00
2023-11-27T04:01:25.886Z,7.30
2023-11-27T04:03:52.308Z,7.40
2023-11-27T04:06:25.972Z,8.50
2023-11-27T04:08:52.572Z,8.03
2023-11-27T04:11:19.855Z,8.57
2023-11-27T04:13:47.016Z,9.10
2023-11-27T04:16:13.599Z,8.57
2023-11-27T04:18:39.954Z,9.07
2023-11-27T04:21:06.897Z,8.03
2023-11-27T04:23:33.261Z,8.53
2023-11-27T04:25:59.518Z,8.03
2023-11-27T04:28:26.254Z,7.77
2023-11-27T04:30:52.622Z,7.80
2023-11-27T04:33:20.078Z,8.80
2023-11-27T04:35:46.497Z,8.87
2023-11-27T04:38:12.851Z,8.90
2023-11-27T04:40:39.247Z,9.30
2023-11-27T04:43:05.545Z,9.00
2023-11-27T04:45:31.871Z,8.27
2023-11-27T04:47:58.212Z,9.17
2023-11-27T04:50:26.026Z,9.03
2023-11-27T04:52:52.394Z,8.60
2023-11-27T04:55:18.732Z,9.00
2023-11-27T04:57:45.039Z,8.70
2023-11-27T05:00:13.322Z,8.60
2023-11-27T05:02:39.816Z,8.63
2023-11-27T05:05:07.244Z,8.67
2023-11-27T05:07:33.592Z,8.63
2023-11-27T05:09:59.922Z,8.57
2023-11-27T05:12:32.717Z,8.33
2023-11-27T05:15:00.034Z,8.50
2023-11-27T05:17:26.456Z,8.50
2023-11-27T05:19:52.765Z,8.33
2023-11-27T05:22:19.750Z,8.50
2023-11-27T05:24:46.151Z,8.07
2023-11-27T05:27:12.454Z,7.77
2023-11-27T05:29:38.781Z,8.33
2023-11-27T05:32:09.173Z,7.53
2023-11-27T05:34:36.125Z,7.80
2023-11-27T05:37:02.416Z,7.90
2023-11-27T05:39:28.900Z,7.83
2023-11-27T05:41:55.182Z,8.83
2023-11-27T05:44:21.463Z,7.53
2023-11-27T05:46:47.882Z,7.60
2023-11-27T05:49:14.252Z,7.67
2023-11-27T05:51:41.099Z,7.13
2023-11-27T05:54:07.931Z,7.77
2023-11-27T05:56:34.219Z,7.40
2023-11-27T05:59:00.498Z,8.10
2023-11-27T06:01:26.870Z,7.47
2023-11-27T06:03:53.300Z,7.53
2023-11-27T06:06:22.972Z,7.43
2023-11-27T06:08:49.873Z,8.20
2023-11-27T06:11:16.648Z,8.17
2023-11-27T06:13:43.004Z,8.27
2023-11-27T06:16:09.968Z,8.77
2023-11-27T06:18:36.427Z,7.97
2023-11-27T06:21:04.577Z,8.30
2023-11-27T06:23:31.080Z,8.20
2023-11-27T06:25:57.936Z,8.63
2023-11-27T06:28:24.292Z,8.20
2023-11-27T06:30:51.762Z,8.10
2023-11-27T06:33:18.205Z,8.10
2023-11-27T06:35:45.814Z,8.37
2023-11-27T06:38:12.204Z,7.53
2023-11-27T06:40:45.634Z,8.07
2023-11-27T06:43:14.202Z,7.87
2023-11-27T06:45:40.859Z,8.67
2023-11-27T06:48:07.321Z,7.87
2023-11-27T06:50:33.625Z,7.90
2023-11-27T06:52:59.937Z,8.03
2023-11-27T06:55:26.352Z,7.93
2023-11-27T06:57:52.713Z,7.87
2023-11-27T07:00:19.159Z,7.60
2023-11-27T07:02:46.225Z,7.70
2023-11-27T07:05:12.599Z,6.83
2023-11-27T07:07:38.901Z,7.53
2023-11-27T07:10:05.721Z,7.47
2023-11-27T07:12:33.182Z,6.50
2023-11-27T07:14:59.795Z,6.83
2023-11-27T07:17:26.123Z,6.30
2023-11-27T07:19:52.768Z,6.53
2023-11-27T07:22:19.173Z,6.60
2023-11-27T07:24:45.556Z,7.10
2023-11-27T07:27:12.370Z,6.77
2023-11-27T07:29:39.300Z,7.47
2023-11-27T07:32:06.886Z,7.73
2023-11-27T07:34:33.986Z,7.00
2023-11-27T07:37:00.332Z,6.73
2023-11-27T07:39:30.008Z,7.37
2023-11-27T07:41:56.274Z,6.50
2023-11-27T07:44:26.178Z,7.20
2023-11-27T07:46:53.069Z,7.10
2023-11-27T07:49:20.481Z,6.43
2023-11-27T07:51:47.347Z,6.90
2023-11-27T07:54:13.743Z,7.23
2023-11-27T07:56:40.133Z,7.20
2023-11-27T07:59:06.550Z,7.63
2023-11-27T08:01:33.211Z,6.90
2023-11-27T08:03:59.673Z,6.70
2023-11-27T08:06:26.323Z,6.73
2023-11-27T08:08:55.140Z,7.27
2023-11-27T08:11:31.473Z,6.77
2023-11-27T08:13:57.779Z,6.47
2023-11-27T08:16:24.281Z,6.40
2023-11-27T08:18:50.634Z,6.60
2023-11-27T08:21:16.959Z,6.17
2023-11-27T08:23:43.332Z,5.80
2023-11-27T08:26:09.597Z,6.10
2023-11-27T08:28:36.134Z,6.87
2023-11-27T08:31:02.601Z,5.83
2023-11-27T08:33:28.953Z,6.10
2023-11-27T08:35:55.221Z,6.37
2023-11-27T08:38:31.904Z,6.43
2023-11-27T08:40:58.210Z,5.93
2023-11-27T08:43:24.484Z,6.00
2023-11-27T08:45:51.016Z,5.90
2023-11-27T08:48:17.404Z,6.07
2023-11-27T08:50:43.804Z,6.43
2023-11-27T08:53:10.341Z,6.23
2023-11-27T08:55:36.668Z,6.10
2023-11-27T08:58:05.261Z,7.10
2023-11-27T09:00:32.145Z,6.73
2023-11-27T09:03:00.828Z,6.87
2023-11-27T09:05:31.858Z,6.10
2023-11-27T09:08:01.228Z,6.43
2023-11-27T09:10:27.714Z,6.53
2023-11-27T09:12:54.021Z,5.87
2023-11-27T09:15:20.347Z,6.00
2023-11-27T09:17:47.392Z,5.97
2023-11-27T09:20:13.894Z,5.83
2023-11-27T09:22:40.878Z,7.10
2023-11-27T09:25:10.323Z,6.50
2023-11-27T09:27:36.953Z,6.50
2023-11-27T09:30:05.404Z,6.07
2023-11-27T09:32:31.821Z,6.20
2023-11-27T09:34:59.551Z,6.83
2023-11-27T09:37:26.665Z,6.80
2023-11-27T09:39:54.425Z,6.70
2023-11-27T09:42:23.697Z,7.40
2023-11-27T09:44:51.495Z,7.07
2023-11-27T09:47:18.819Z,7.43
2023-11-27T09:49:47.988Z,7.93
2023-11-27T09:52:19.304Z,7.37
2023-11-27T09:54:48.372Z,8.03
2023-11-27T09:57:15.073Z,7.53
2023-11-27T09:59:41.692Z,7.63
2023-11-27T10:02:11.689Z,7.53
2023-11-27T10:04:38.212Z,8.40
2023-11-27T10:07:08.003Z,8.83
2023-11-27T10:09:35.458Z,8.87
2023-11-27T10:12:01.840Z,8.77
2023-11-27T10:14:37.020Z,9.43
2023-11-27T10:17:06.432Z,9.80
2023-11-27T10:19:32.814Z,10.67
2023-11-27T10:22:00.540Z,10.00
2023-11-27T10:24:27.038Z,10.83
2023-11-27T10:26:53.302Z,11.03
2023-11-27T10:29:27.048Z,11.30
2023-11-27T10:31:59.684Z,11.30
2023-11-27T10:34:36.110Z,12.17
2023-11-27T10:37:02.987Z,11.13
2023-11-27T10:39:33.509Z,11.93
2023-11-27T10:42:00.324Z,12.23
2023-11-27T10:44:26.729Z,13.33
2023-11-27T10:46:54.548Z,12.83
2023-11-27T10:49:22.496Z,14.07
2023-11-27T10:51:49.648Z,13.43
2023-11-27T10:54:16.990Z,13.77
2023-11-27T10:56:45.704Z,12.77
2023-11-27T10:59:14.804Z,13.87
2023-11-27T11:01:42.704Z,13.93
2023-11-27T11:04:26.142Z,12.90
2023-11-27T11:06:54.128Z,13.73
2023-11-27T11:09:23.423Z,13.30
2023-11-27T11:11:56.815Z,12.07
2023-11-27T11:14:25.339Z,13.03
2023-11-27T11:17:09.253Z,12.63
2023-11-27T11:19:42.677Z,12.10
2023-11-27T11:22:20.262Z,12.33
2023-11-27T11:25:09.335Z,13.33
2023-11-27T11:27:40.418Z,12.40
2023-11-27T11:30:14.412Z,12.77
2023-11-27T11:32:41.466Z,12.87
2023-11-27T11:35:12.403Z,11.73
2023-11-27T11:37:48.843Z,11.83
2023-11-27T11:40:18.380Z,12.13
2023-11-27T11:42:49.199Z,12.40
2023-11-27T11:45:26.670Z,11.53
2023-11-27T11:48:00.021Z,12.00
2023-11-27T11:50:30.520Z,11.87
2023-11-27T11:53:05.039Z,12.40
2023-11-27T11:55:35.532Z,12.27
2023-11-27T11:58:06.710Z,11.70
2023-11-27T12:00:46.274Z,13.07
2023-11-27T12:03:17.522Z,13.30
2023-11-27T12:05:47.881Z,11.87
2023-11-27T12:08:14.343Z,13.17
2023-11-27T12:10:40.742Z,13.10
2023-11-27T12:13:10.615Z,12.40
2023-11-27T12:15:37.300Z,11.97
2023-11-27T12:18:09.846Z,11.47
2023-11-27T12:20:36.729Z,12.13
2023-11-27T12:23:03.086Z,11.67
2023-11-27T12:25:29.401Z,10.87
2023-11-27T12:27:55.731Z,11.20
2023-11-27T12:30:22.030Z,10.27
2023-11-27T12:32:50.144Z,10.23
2023-11-27T12:35:17.038Z,10.57
2023-11-27T12:37:46.832Z,9.63
2023-11-27T12:40:18.820Z,9.57
2023-11-27T12:42:46.407Z,9.47
2023-11-27T12:45:13.877Z,9.70
2023-11-27T12:47:40.311Z,10.10
2023-11-27T12:50:17.018Z,9.57
2023-11-27T12:52:46.464Z,10.37
2023-11-27T12:55:14.361Z,9.73
2023-11-27T12:57:41.190Z,10.87
2023-11-27T13:00:07.823Z,9.90
2023-11-27T13:02:44.149Z,9.30
2023-11-27T13:05:13.686Z,9.43
2023-11-27T13:07:43.091Z,10.37
2023-11-27T13:10:12.973Z,9.43
2023-11-27T13:12:49.780Z,9.67
2023-11-27T13:15:26.534Z,10.17
2023-11-27T13:18:01.099Z,9.40
2023-11-27T13:20:28.459Z,10.40
2023-11-27T13:22:54.928Z,10.57
2023-11-27T13:25:24.931Z,10.93
2023-11-27T13:27:51.314Z,9.73
2023-11-27T13:30:27.906Z,11.23
2023-11-27T13:32:55.035Z,9.77
2023-11-27T13:35:33.335Z,9.80
2023-11-27T13:38:04.138Z,10.07
2023-11-27T13:40:32.827Z,10.70
2023-11-27T13:42:59.975Z,10.33
2023-11-27T13:45:36.524Z,10.93
2023-11-27T13:48:03.776Z,9.80
2023-11-27T13:50:39.613Z,10.00
2023-11-27T13:53:09.839Z,10.30
2023-11-27T13:55:36.778Z,10.50
2023-11-27T13:58:07.744Z,10.90
2023-11-27T14:00:35.431Z,10.53
2023-11-27T14:03:04.035Z,11.53
2023-11-27T14:05:37.307Z,10.50
2023-11-27T14:08:04.516Z,10.07
2023-11-27T14:10:53.731Z,10.13
2023-11-27T14:13:20.084Z,9.57
2023-11-27T14:15:49.141Z,10.17
2023-11-27T14:18:22.147Z,9.47
2023-11-27T14:21:07.861Z,9.57
2023-11-27T14:23:40.091Z,9.63
2023-11-27T14:26:06.523Z,9.30
2023-11-27T14:28:48.611Z,9.60
2023-11-27T14:31:15.674Z,9.83
2023-11-27T14:33:42.008Z,9.87
2023-11-27T14:36:12.404Z,9.33
2023-11-27T14:38:39.225Z,8.77
2023-11-27T14:41:05.997Z,8.53
2023-11-27T14:43:33.616Z,8.83
2023-11-27T14:45:59.959Z,9.00
2023-11-27T14:48:32.924Z,8.30
2023-11-27T14:51:00.334Z,7.90
2023-11-27T14:53:27.675Z,8.20
2023-11-27T14:55:54.048Z,9.40
2023-11-27T14:58:20.418Z,8.07
2023-11-27T15:00:50.106Z,7.27
2023-11-27T15:03:20.718Z,7.50
2023-11-27T15:05:49.771Z,10.57
2023-11-27T15:08:18.663Z,7.13
2023-11-27T15:10:45.008Z,7.30
2023-11-27T15:13:12.713Z,6.20
2023-11-27T15:15:39.206Z,6.23
2023-11-27T15:18:07.386Z,6.87
2023-11-27T15:20:35.552Z,7.57
2023-11-27T15:23:02.714Z,7.17
2023-11-27T15:25:29.721Z,7.60
2023-11-27T15:27:57.237Z,7.17
2023-11-27T15:30:25.711Z,7.57
2023-11-27T15:32:52.119Z,7.50
2023-11-27T15:35:20.206Z,8.47
2023-11-27T15:37:47.748Z,7.57
2023-11-27T15:40:21.209Z,6.93
2023-11-27T15:42:47.815Z,7.50
2023-11-27T15:45:16.561Z,7.07
2023-11-27T15:47:43.214Z,7.27
2023-11-27T15:50:14.576Z,7.27
2023-11-27T15:52:41.709Z,7.17
2023-11-27T15:55:09.849Z,8.10
2023-11-27T15:57:36.222Z,7.47
2023-11-27T16:00:03.758Z,8.43
2023-11-27T16:02:31.629Z,7.83
2023-11-27T16:04:58.748Z,7.63
2023-11-27T16:07:25.889Z,6.30
2023-11-27T16:09:52.368Z,7.07
2023-11-27T16:12:18.711Z,7.30
2023-11-27T16:14:46.415Z,6.90
2023-11-27T16:17:14.839Z,7.37
2023-11-27T16:19:41.409Z,6.70
2023-11-27T16:22:07.946Z,7.87
2023-11-27T16:24:34.553Z,7.40
2023-11-27T16:27:00.857Z,7.40
2023-11-27T16:29:27.250Z,9.03
2023-11-27T16:31:53.659Z,9.80
2023-11-27T16:34:20.015Z,8.47
2023-11-27T16:36:47.687Z,7.57
2023-11-27T16:39:14.850Z,6.83
2023-11-27T16:41:41.892Z,6.93
2023-11-27T16:44:08.201Z,6.93
2023-11-27T16:46:34.967Z,6.90
2023-11-27T16:49:01.957Z,6.70
2023-11-27T16:51:32.751Z,5.93
2023-11-27T16:54:01.138Z,5.77
2023-11-27T16:56:28.044Z,6.07
2023-11-27T16:58:54.994Z,6.10
2023-11-27T17:01:21.677Z,5.50
2023-11-27T17:03:50.413Z,6.13
2023-11-27T17:06:17.581Z,5.97
2023-11-27T17:08:43.980Z,6.00
2023-11-27T17:11:10.289Z,6.60
2023-11-27T17:13:36.639Z,6.83
2023-11-27T17:16:03.172Z,6.57
2023-11-27T17:18:29.541Z,6.33
2023-11-27T17:20:56.286Z,6.43
2023-11-27T17:23:22.885Z,6.30
2023-11-27T17:25:49.274Z,5.77
2023-11-27T17:28:16.186Z,6.93
2023-11-27T17:30:46.597Z,6.70
2023-11-27T17:33:14.812Z,6.10
2023-11-27T17:35:41.566Z,6.90
2023-11-27T17:38:09.243Z,7.20
2023-11-27T17:40:36.930Z,7.27
2023-11-27T17:43:03.449Z,6.90
2023-11-27T17:45:29.861Z,7.03
2023-11-27T17:48:00.432Z,6.87
2023-11-27T17:50:27.208Z,7.03
2023-11-27T17:52:54.220Z,7.57
2023-11-27T17:55:22.231Z,8.80
2023-11-27T17:57:49.191Z,9.17
2023-11-27T18:00:17.497Z,10.20
2023-11-27T18:02:44.676Z,8.80
2023-11-27T18:05:13.333Z,8.00
2023-11-27T18:07:41.556Z,8.20
2023-11-27T18:10:08.533Z,7.37
2023-11-27T18:12:35.053Z,8.47
2023-11-27T18:15:01.362Z,8.00
2023-11-27T18:17:27.714Z,8.40
2023-11-27T18:19:54.005Z,8.33
2023-11-27T18:22:20.314Z,9.30
2023-11-27T18:24:46.637Z,8.07
2023-11-27T18:27:14.903Z,8.43
2023-11-27T18:29:41.300Z,8.70
2023-11-27T18:32:08.215Z,9.23
2023-11-27T18:34:34.515Z,8.83
2023-11-27T18:37:01.949Z,9.23
2023-11-27T18:39:31.300Z,8.50
2023-11-27T18:41:58.538Z,9.87
2023-11-27T18:44:26.815Z,8.33
2023-11-27T18:46:54.045Z,8.37
2023-11-27T18:49:24.873Z,8.97
2023-11-27T18:51:55.395Z,9.17
2023-11-27T18:54:21.723Z,8.83
2023-11-27T18:56:49.505Z,9.30
2023-11-27T18:59:15.954Z,8.90
2023-11-27T19:01:42.348Z,8.63
2023-11-27T19:04:08.836Z,9.17
2023-11-27T19:06:35.212Z,14.23
2023-11-27T19:09:01.478Z,9.53
2023-11-27T19:11:28.098Z,10.33
2023-11-27T19:13:54.591Z,13.53
2023-11-27T19:16:21.006Z,10.83
2023-11-27T19:18:51.848Z,9.90
2023-11-27T19:21:18.269Z,9.70
2023-11-27T19:23:44.558Z,9.07
2023-11-27T19:26:11.272Z,9.27
2023-11-27T19:28:37.619Z,8.87
2023-11-27T19:31:04.040Z,9.07
2023-11-27T19:33:33.335Z,10.40
2023-11-27T19:36:00.261Z,9.13
2023-11-27T19:38:27.505Z,11.27
2023-11-27T19:40:54.842Z,9.93
2023-11-27T19:43:21.398Z,10.60
2023-11-27T19:45:47.795Z,10.33
2023-11-27T19:48:14.185Z,9.60
2023-11-27T19:50:41.022Z,9.80
2023-11-27T19:53:08.285Z,9.10
2023-11-27T19:55:34.648Z,10.87
2023-11-27T19:58:00.956Z,10.00
2023-11-27T20:00:28.437Z,10.53
2023-11-27T20:02:56.198Z,9.77
2023-11-27T20:05:23.319Z,10.87
2023-11-27T20:07:49.747Z,10.60
2023-11-27T20:10:16.852Z,11.10
2023-11-27T20:12:43.706Z,10.40
2023-11-27T20:15:11.676Z,10.70
2023-11-27T20:17:39.225Z,11.10
2023-11-27T20:20:05.877Z,12.83
2023-11-27T20:22:32.214Z,11.80
2023-11-27T20:24:58.976Z,10.50
2023-11-27T20:27:29.607Z,11.53
2023-11-27T20:29:55.902Z,10.63
2023-11-27T20:32:22.263Z,11.73
2023-11-27T20:34:49.076Z,12.23
2023-11-27T20:37:15.516Z,12.73
2023-11-27T20:39:44.337Z,12.47
2023-11-27T20:42:10.733Z,11.67
2023-11-27T20:44:47.624Z,12.57
2023-11-27T20:47:18.412Z,10.83
2023-11-27T20:49:45.422Z,12.03
2023-11-27T20:52:12.391Z,12.47
2023-11-27T20:54:39.107Z,12.00
2023-11-27T20:57:06.280Z,11.93
2023-11-27T20:59:34.255Z,14.47
2023-11-27T21:02:03.475Z,12.37
2023-11-27T21:04:29.838Z,12.60
2023-11-27T21:06:56.410Z,12.13
2023-11-27T21:09:24.747Z,11.63
2023-11-27T21:11:52.169Z,11.40
2023-11-27T21:14:19.804Z,10.57
2023-11-27T21:16:46.662Z,10.80
2023-11-27T21:19:13.432Z,11.83
2023-11-27T21:21:42.575Z,10.17
2023-11-27T21:24:08.947Z,9.43
2023-11-27T21:26:37.289Z,9.10
2023-11-27T21:29:04.740Z,9.43
2023-11-27T21:31:31.933Z,9.87
2023-11-27T21:34:01.163Z,8.07
2023-11-27T21:36:29.960Z,8.17
2023-11-27T21:38:57.046Z,8.13
2023-11-27T21:41:24.929Z,8.40
2023-11-27T21:43:51.441Z,8.20
2023-11-27T21:46:17.817Z,8.23
2023-11-27T21:48:44.164Z,8.60
2023-11-27T21:51:16.950Z,8.70
2023-11-27T21:53:43.246Z,8.90
2023-11-27T21:56:09.732Z,10.50
2023-11-27T21:58:36.099Z,10.37
2023-11-27T22:01:11.848Z,9.77
2023-11-27T22:03:43.308Z,8.80
2023-11-27T22:06:09.882Z,8.27
2023-11-27T22:08:36.256Z,8.70
2023-11-27T22:11:02.571Z,8.70
2023-11-27T22:13:28.883Z,8.30
2023-11-27T22:15:55.233Z,10.07
2023-11-27T22:18:21.580Z,9.50
2023-11-27T22:20:47.856Z,9.57
2023-11-27T22:23:14.124Z,8.97
2023-11-27T22:25:40.472Z,9.43
2023-11-27T22:28:06.748Z,9.63
2023-11-27T22:30:33.057Z,9.20
2023-11-27T22:32:59.974Z,9.23
2023-11-27T22:35:26.367Z,10.50
2023-11-27T22:37:54.749Z,11.63
2023-11-27T22:40:22.483Z,11.57
2023-11-27T22:42:48.790Z,12.20
2023-11-27T22:45:15.106Z,12.40
2023-11-27T22:47:41.520Z,10.83
2023-11-27T22:50:09.088Z,11.10
2023-11-27T22:52:35.460Z,11.90
2023-11-27T22:55:01.781Z,12.03
2023-11-27T22:57:28.055Z,11.60
2023-11-27T22:59:54.366Z,13.23
2023-11-27T23:02:20.862Z,13.83
2023-11-27T23:04:47.883Z,12.87
2023-11-27T23:07:14.861Z,12.93
2023-11-27T23:09:41.222Z,13.33
2023-11-27T23:12:07.851Z,12.13
2023-11-27T23:14:34.370Z,12.53
2023-11-27T23:17:00.760Z,13.73
2023-11-27T23:19:27.150Z,13.73
2023-11-27T23:21:53.489Z,13.70
2023-11-27T23:24:26.507Z,14.73
2023-11-27T23:26:54.185Z,13.70
2023-11-27T23:29:22.179Z,15.27
2023-11-27T23:31:49.188Z,15.00
2023-11-27T23:34:15.699Z,14.47
2023-11-27T23:36:42.258Z,14.80
2023-11-27T23:39:09.630Z,13.80
2023-11-27T23:41:36.960Z,14.83
2023-11-27T23:44:03.410Z,14.87
2023-11-27T23:46:29.854Z,15.40
2023-11-27T23:48:58.429Z,16.57
2023-11-27T23:51:30.691Z,15.07
2023-11-27T23:53:56.993Z,15.23
2023-11-27T23:56:23.405Z,15.97
2023-11-27T23:58:49.869Z,15.50
